»·PEaware :: UAL350 KSJC-KSAN

UAL350 :: KSJC-KSAN

FLIGHT INFORMATION

Flight Status: Arrived
Operator:
United Airlines
More flights by this operator :: More flights under this callsign
Pilot: Jeff H. (11722)
Aircraft: BOEING 737-300
(B733)
More flights by this aircraft type
Origin: KSJC Mineta San Jose Intl
United States
Destination: KSAN San Diego Intl-Lindbergh
United States
More flights between these airports :: More routes between these airports
Route: +TECKY3 EBAYE AVE FIM J1 LAX HUBRD1
File this flight plan on PilotEdge
Remarks:
Altitude:
(Current/Filed)
310ft
Speed:
(Current/Filed)
0kts
Departed: 29-Nov-17 08:11 PM
Arrived: 29-Nov-17 09:22 PM
Distance/Time
Traveled:
362nm/1:11
Distance/Time
To Go:
Arrived

Flight Plot

Page will automatically refresh every two minutes.

Flight plan parsing failed; only flown route is shown


Map Options




Map Legend


Flown Route
Filed Route
Departure Airport
Arrival Airport
Navaid (VOR, NDB)
Fix

Horizontal Profiles

Position Reports

Time Latitude Longitude Heading Altitude Ground
Speed
29-Nov-17 19:45 37.370597 -121.931885 50 69ft 0kts
29-Nov-17 19:46 37.370597 -121.931885 50 69ft 0kts
29-Nov-17 19:47 37.370597 -121.931885 50 69ft 0kts
29-Nov-17 19:48 37.370597 -121.931885 50 69ft 0kts
29-Nov-17 19:49 37.370597 -121.931885 50 69ft 0kts
29-Nov-17 19:50 37.370597 -121.931885 50 69ft 0kts
29-Nov-17 19:51 37.370597 -121.931885 50 69ft 0kts
29-Nov-17 19:52 37.370597 -121.931885 50 69ft 0kts
29-Nov-17 19:53 37.370597 -121.931885 50 69ft 0kts
29-Nov-17 19:54 37.370597 -121.931885 50 69ft 0kts
29-Nov-17 19:55 37.370597 -121.931885 50 69ft 0kts
29-Nov-17 19:56 37.370597 -121.931885 50 69ft 0kts
29-Nov-17 19:57 37.370597 -121.931885 50 69ft 0kts
29-Nov-17 19:58 37.370597 -121.931885 50 69ft 0kts
29-Nov-17 19:59 37.370597 -121.931885 50 69ft 0kts
29-Nov-17 20:00 37.370597 -121.931885 50 69ft 0kts
29-Nov-17 20:01 37.370597 -121.931885 50 69ft 0kts
29-Nov-17 20:02 37.370597 -121.931885 50 69ft 0kts
29-Nov-17 20:03 37.370597 -121.931885 50 69ft 0kts
29-Nov-17 20:04 37.370597 -121.931885 50 69ft 0kts
29-Nov-17 20:05 37.370597 -121.931885 50 69ft 0kts
29-Nov-17 20:06 37.370597 -121.931885 50 69ft 0kts
29-Nov-17 20:07 37.370597 -121.931885 50 69ft 0kts
29-Nov-17 20:08 37.370597 -121.931885 50 69ft 0kts
29-Nov-17 20:09 37.370570 -121.931703 140 69ft 1kts
29-Nov-17 20:10 37.368853 -121.930727 137 69ft 9kts
29-Nov-17 20:11 37.365956 -121.927545 138 69ft 17kts
29-Nov-17 20:12 37.362698 -121.924060 139 69ft 13kts
29-Nov-17 20:13 37.359356 -121.920398 139 69ft 21kts
29-Nov-17 20:14 37.354432 -121.914982 136 69ft 17kts
29-Nov-17 20:15 37.352943 -121.915964 315 69ft 20kts
29-Nov-17 20:16 37.379852 -121.945541 318 1214ft 208kts
29-Nov-17 20:17 37.432297 -121.968736 36 2956ft 239kts
29-Nov-17 20:18 37.421784 -121.899342 136 4732ft 247kts
29-Nov-17 20:19 37.372761 -121.840186 137 4972ft 269kts
29-Nov-17 20:20 37.319852 -121.777763 138 5020ft 269kts
29-Nov-17 20:21 37.264968 -121.715478 138 7328ft 280kts
29-Nov-17 20:22 37.207115 -121.649914 138 9321ft 288kts
29-Nov-17 20:23 37.147640 -121.582655 138 11311ft 296kts
29-Nov-17 20:24 37.085729 -121.512798 139 12922ft 304kts
29-Nov-17 20:25 37.024438 -121.446303 141 12992ft 301kts
29-Nov-17 20:26 36.963628 -121.381556 140 14495ft 317kts
29-Nov-17 20:27 36.894088 -121.307525 140 16651ft 346kts
29-Nov-17 20:28 36.818997 -121.227760 139 18672ft 367kts
29-Nov-17 20:29 36.741472 -121.145629 139 19162ft 379kts
29-Nov-17 20:30 36.661401 -121.061045 138 19174ft 381kts
29-Nov-17 20:31 36.580644 -120.977254 139 19174ft 384kts
29-Nov-17 20:32 36.501014 -120.896478 139 20098ft 389kts
29-Nov-17 20:33 36.423509 -120.816953 139 21531ft 398kts
29-Nov-17 20:34 36.338004 -120.730481 139 23120ft 409kts
29-Nov-17 20:35 36.255910 -120.647621 139 24609ft 418kts
29-Nov-17 20:36 36.167073 -120.558294 139 26180ft 425kts
29-Nov-17 20:37 36.075410 -120.466435 139 27779ft 428kts
29-Nov-17 20:38 35.987715 -120.378830 138 29296ft 426kts
29-Nov-17 20:39 35.896249 -120.287729 138 30880ft 421kts
29-Nov-17 20:40 35.811012 -120.187436 131 31217ft 430kts
29-Nov-17 20:41 35.729733 -120.083727 131 31197ft 426kts
29-Nov-17 20:42 35.644732 -119.976639 136 31113ft 451kts
29-Nov-17 20:43 35.540832 -119.886920 142 31128ft 464kts
29-Nov-17 20:44 35.435824 -119.795478 142 31161ft 469kts
29-Nov-17 20:45 35.329875 -119.704471 142 31213ft 470kts
29-Nov-17 20:46 35.223152 -119.612904 142 31198ft 471kts
29-Nov-17 20:47 35.117029 -119.522142 142 31203ft 470kts
29-Nov-17 20:48 35.012143 -119.432745 142 31195ft 473kts
29-Nov-17 20:49 34.903972 -119.340815 148 31205ft 475kts
29-Nov-17 20:50 34.806390 -119.258180 148 31182ft 460kts
29-Nov-17 20:51 34.706295 -119.173655 148 31144ft 462kts
29-Nov-17 20:52 34.603129 -119.086803 148 31130ft 460kts
29-Nov-17 20:53 34.498148 -118.998698 148 31141ft 461kts
29-Nov-17 20:54 34.394251 -118.911906 150 31134ft 457kts
29-Nov-17 20:55 34.298167 -118.818766 145 30336ft 453kts
29-Nov-17 20:56 34.211551 -118.726182 146 27894ft 411kts
29-Nov-17 20:58 34.047863 -118.552666 144 24116ft 396kts
29-Nov-17 20:59 33.965838 -118.466015 144 24120ft 396kts
29-Nov-17 21:00 33.887504 -118.373549 139 24121ft 400kts
29-Nov-17 21:01 33.814018 -118.279125 139 24122ft 399kts
29-Nov-17 21:02 33.738817 -118.182883 139 24121ft 399kts
29-Nov-17 21:03 33.663731 -118.087054 139 24120ft 399kts
29-Nov-17 21:04 33.590060 -117.993285 139 24119ft 399kts
29-Nov-17 21:05 33.514569 -117.897456 139 24120ft 400kts
29-Nov-17 21:06 33.443128 -117.806081 140 24106ft 399kts
29-Nov-17 21:07 33.371432 -117.716388 139 22368ft 370kts
29-Nov-17 21:08 33.304187 -117.631775 139 20486ft 355kts
29-Nov-17 21:09 33.241678 -117.553389 138 18490ft 337kts
29-Nov-17 21:10 33.180600 -117.476977 137 16336ft 327kts
29-Nov-17 21:11 33.114640 -117.409621 157 14963ft 314kts
29-Nov-17 21:12 33.056045 -117.377169 157 14113ft 292kts
29-Nov-17 21:13 32.974368 -117.331826 157 11751ft 282kts
29-Nov-17 21:14 32.905791 -117.293808 157 9544ft 285kts
29-Nov-17 21:15 32.844406 -117.245189 113 7370ft 294kts
29-Nov-17 21:16 32.827258 -117.154714 101 5230ft 285kts
29-Nov-17 21:17 32.814888 -117.086970 101 5008ft 235kts
29-Nov-17 21:18 32.801809 -117.014924 101 4474ft 234kts
29-Nov-17 21:19 32.789016 -116.943834 101 3990ft 225kts
29-Nov-17 21:20 32.750725 -116.903973 190 3997ft 226kts
29-Nov-17 21:21 32.687621 -116.920697 197 3996ft 205kts
29-Nov-17 21:22 32.675070 -116.967244 282 3992ft 205kts
29-Nov-17 21:23 32.688760 -117.030030 285 3358ft 204kts
29-Nov-17 21:24 32.706681 -117.088660 291 1899ft 182kts
29-Nov-17 21:25 32.719074 -117.131874 283 920ft 127kts
29-Nov-17 21:26 32.728863 -117.170521 285 290ft 122kts
29-Nov-17 21:27 32.734255 -117.194837 245 24ft 20kts
29-Nov-17 21:28 32.734451 -117.198125 280 24ft 16kts
29-Nov-17 21:29 32.733066 -117.200750 275 24ft 0kts

Navigation Log

Ident Type
Flight plan parsing failed, navigation log unavailable